Time;durP1;ratioP1;P1;durP2;ratioP2;P2;SDS_P1;SDS_P2;PMS_P1;PMS_P2;Temp;Humidity;BMP_temperature;BMP_pressure;BME280_temperature;BME280_humidity;BME280_pressure;Samples;Min_cycle;Max_cycle;Signal;HPM_P1;HPM_P2
2022/04/03 00:00:41;;;;;;;10.03;6.70;;;;;;;-0.78;85.50;97072.84;6175535;28;20217;-83
2022/04/03 00:03:44;;;;;;;10.63;6.27;;;;;;;-0.79;85.76;97072.00;6164999;28;20225;-83
2022/04/03 00:06:46;;;;;;;10.70;6.80;;;;;;;-0.79;86.02;97073.75;6179839;28;20237;-83
2022/04/03 00:09:48;;;;;;;9.00;6.70;;;;;;;-0.81;85.52;97070.41;6180591;28;20239;-83
2022/04/03 00:12:50;;;;;;;10.00;6.40;;;;;;;-0.80;85.78;97079.84;6163514;28;20229;-82
2022/04/03 00:15:52;;;;;;;11.37;7.17;;;;;;;-0.78;85.57;97084.03;6159447;28;20237;-82
2022/04/03 00:18:55;;;;;;;14.03;7.83;;;;;;;-0.75;85.82;97080.47;6163400;28;20348;-82
2022/04/03 00:21:57;;;;;;;11.10;7.63;;;;;;;-0.73;85.69;97081.25;6162976;28;20235;-82
2022/04/03 00:24:59;;;;;;;13.47;7.67;;;;;;;-0.72;85.97;97082.09;6181108;28;20271;-82
2022/04/03 00:28:02;;;;;;;12.70;7.80;;;;;;;-0.73;85.75;97083.00;6163364;28;20239;-82
2022/04/03 00:31:04;;;;;;;13.57;9.10;;;;;;;-0.79;86.51;97084.94;6161877;28;20376;-82
2022/04/03 00:34:07;;;;;;;15.37;9.53;;;;;;;-0.81;86.14;97083.34;6178805;28;20243;-82
2022/04/03 00:37:09;;;;;;;11.50;8.87;;;;;;;-0.82;85.73;97084.25;6178519;28;20720;-83
2022/04/03 00:40:12;;;;;;;10.83;8.13;;;;;;;-0.77;85.40;97079.69;6180034;28;20237;-82
2022/04/03 00:43:15;;;;;;;11.20;8.60;;;;;;;-0.75;85.47;97086.50;6179195;28;20238;-83
2022/04/03 00:46:21;;;;;;;14.70;9.77;;;;;;;-0.76;85.26;97090.00;6178768;28;20592;-82
2022/04/03 00:49:24;;;;;;;14.87;9.57;;;;;;;-0.78;85.38;97091.81;6164561;28;20268;-82
2022/04/03 00:52:27;;;;;;;14.00;9.20;;;;;;;-0.78;85.24;97089.22;6184009;28;20232;-82
2022/04/03 00:55:29;;;;;;;15.10;9.63;;;;;;;-0.79;85.42;97092.72;6178455;28;20240;-82
2022/04/03 00:58:32;;;;;;;14.90;10.50;;;;;;;-0.82;85.51;97092.88;6178196;28;20229;-82
2022/04/03 01:01:34;;;;;;;15.23;10.07;;;;;;;-0.84;85.94;97084.31;6162557;28;20247;-82
2022/04/03 01:04:37;;;;;;;14.13;10.73;;;;;;;-0.84;86.04;97084.31;6180761;28;20736;-82
2022/04/03 01:07:40;;;;;;;14.27;10.23;;;;;;;-0.81;86.24;97091.13;6150835;28;20240;-82
2022/04/03 01:10:42;;;;;;;18.23;11.23;;;;;;;-0.81;86.33;97094.56;6163129;28;20260;-83
2022/04/03 01:13:49;;;;;;;12.10;10.57;;;;;;;-0.81;85.94;97097.16;6178997;28;20627;-83
2022/04/03 01:16:51;;;;;;;14.13;11.17;;;;;;;-0.80;86.11;97095.41;6177642;28;20225;-82
2022/04/03 01:19:53;;;;;;;12.63;10.00;;;;;;;-0.78;85.57;97106.50;6178002;28;20674;-83
2022/04/03 01:22:55;;;;;;;14.50;10.73;;;;;;;-0.78;85.44;97098.75;6162758;28;20251;-83
2022/04/03 01:25:59;;;;;;;18.37;10.97;;;;;;;-0.78;85.30;97094.41;6160979;28;20232;-82
2022/04/03 01:29:01;;;;;;;13.90;10.73;;;;;;;-0.76;85.04;97102.09;6138019;28;20705;-83
2022/04/03 01:32:04;;;;;;;13.27;9.17;;;;;;;-0.76;84.76;97104.69;6169744;28;20279;-82
2022/04/03 01:35:07;;;;;;;13.50;9.50;;;;;;;-0.73;84.93;97103.72;6180078;28;20610;-83
2022/04/03 01:38:09;;;;;;;13.90;10.13;;;;;;;-0.72;84.57;97110.59;6178086;28;20237;-82
2022/04/03 01:41:11;;;;;;;13.53;10.70;;;;;;;-0.68;84.01;97101.75;6176786;28;20225;-83
2022/04/03 01:44:14;;;;;;;14.80;10.70;;;;;;;-0.65;83.42;97104.22;6160945;28;20255;-83
2022/04/03 01:47:16;;;;;;;13.03;10.30;;;;;;;-0.63;83.39;97103.25;6161631;28;20240;-82
2022/04/03 01:50:18;;;;;;;14.23;9.53;;;;;;;-0.63;83.45;97107.59;6162814;28;20241;-82
2022/04/03 01:53:20;;;;;;;14.27;10.20;;;;;;;-0.64;83.20;97117.09;6180678;28;20229;-82
2022/04/03 01:56:22;;;;;;;24.83;11.57;;;;;;;-0.63;83.82;97128.31;6161278;28;20232;-82
2022/04/03 01:59:24;;;;;;;13.37;9.87;;;;;;;-0.62;83.03;97117.03;6179252;28;20224;-82
2022/04/03 02:02:27;;;;;;;14.47;9.77;;;;;;;-0.64;82.54;97122.28;6178595;28;20236;-82
2022/04/03 02:05:31;;;;;;;11.47;8.60;;;;;;;-0.66;82.37;97126.69;6138728;28;20241;-82
2022/04/03 02:08:33;;;;;;;12.30;9.07;;;;;;;-0.61;82.45;97134.28;6151316;28;20698;-82
2022/04/03 02:11:36;;;;;;;12.47;8.10;;;;;;;-0.62;81.49;97135.19;6162376;28;20312;-82
2022/04/03 02:14:38;;;;;;;11.37;8.40;;;;;;;-0.60;82.03;97141.16;6177016;28;20233;-82
2022/04/03 02:17:41;;;;;;;11.47;8.10;;;;;;;-0.61;81.66;97129.94;6178329;28;20233;-83
2022/04/03 02:20:43;;;;;;;11.23;8.10;;;;;;;-0.61;81.33;97142.06;6162052;28;20257;-82
2022/04/03 02:23:45;;;;;;;10.90;8.07;;;;;;;-0.63;81.51;97141.28;6177258;28;20225;-82
2022/04/03 02:26:47;;;;;;;11.27;8.63;;;;;;;-0.64;81.39;97142.19;6161996;28;20235;-83
2022/04/03 02:29:49;;;;;;;10.93;7.67;;;;;;;-0.66;80.47;97136.22;6165175;28;20244;-82
2022/04/03 02:32:51;;;;;;;11.57;7.60;;;;;;;-0.63;81.10;97149.03;6183760;28;20240;-82
2022/04/03 02:35:54;;;;;;;11.53;7.80;;;;;;;-0.69;81.80;97144.97;6165959;28;20633;-82
2022/04/03 02:38:57;;;;;;;9.30;7.87;;;;;;;-0.71;81.60;97143.38;6158144;28;20237;-82
2022/04/03 02:41:59;;;;;;;9.73;7.93;;;;;;;-0.67;80.74;97155.25;6151750;28;20242;-82
2022/04/03 02:45:03;;;;;;;10.57;7.67;;;;;;;-0.71;80.90;97151.13;6176334;28;20224;-82
2022/04/03 02:48:06;;;;;;;11.00;6.93;;;;;;;-0.74;80.49;97149.50;6166392;28;20239;-82
2022/04/03 02:51:08;;;;;;;9.57;6.73;;;;;;;-0.71;80.03;97159.75;6163725;28;20229;-83
2022/04/03 02:54:12;;;;;;;13.57;7.47;;;;;;;-0.68;80.45;97166.53;6165744;28;20212;-82
2022/04/03 02:57:16;;;;;;;13.13;7.43;;;;;;;-0.73;81.22;97168.50;6181602;28;20210;-82
2022/04/03 03:00:19;;;;;;;11.50;7.53;;;;;;;-0.77;81.37;97168.63;6181690;28;20673;-83
2022/04/03 03:03:21;;;;;;;9.07;6.73;;;;;;;-0.77;80.41;97168.63;6165734;28;20274;-82
2022/04/03 03:06:23;;;;;;;9.03;7.03;;;;;;;-0.78;80.46;97177.28;6165242;28;20229;-82
2022/04/03 03:09:25;;;;;;;10.43;6.10;;;;;;;-0.80;80.37;97179.09;6177421;28;20602;-83
2022/04/03 03:12:28;;;;;;;12.43;6.70;;;;;;;-0.79;80.01;97177.34;6164955;28;20248;-82
2022/04/03 03:15:31;;;;;;;9.33;5.43;;;;;;;-0.78;79.44;97182.47;6180866;28;20862;-82
2022/04/03 03:18:33;;;;;;;11.07;5.73;;;;;;;-0.80;79.72;97179.09;6164554;28;20228;-82
2022/04/03 03:21:36;;;;;;;8.73;5.30;;;;;;;-0.81;79.96;97186.97;6164463;28;20235;-82
2022/04/03 03:24:38;;;;;;;9.23;5.53;;;;;;;-0.86;80.35;97181.97;6181130;28;20608;-83
2022/04/03 03:27:40;;;;;;;10.07;6.53;;;;;;;-0.86;80.22;97200.09;6165187;28;20229;-83
2022/04/03 03:30:43;;;;;;;9.73;5.30;;;;;;;-0.82;79.35;97198.22;6182895;28;20747;-82
2022/04/03 03:33:46;;;;;;;8.23;5.70;;;;;;;-0.80;79.83;97210.19;6182644;28;20599;-82
2022/04/03 03:36:49;;;;;;;6.67;5.83;;;;;;;-0.81;79.84;97207.69;6181856;28;20235;-82
2022/04/03 03:39:53;;;;;;;10.47;6.17;;;;;;;-0.82;79.35;97203.41;6182036;28;20730;-82
2022/04/03 03:42:56;;;;;;;10.57;6.50;;;;;;;-0.83;80.07;97207.75;6159050;28;20230;-82
2022/04/03 03:45:58;;;;;;;10.53;6.30;;;;;;;-0.83;80.39;97225.03;6186204;28;20304;-83
2022/04/03 03:49:01;;;;;;;9.00;6.20;;;;;;;-0.85;80.49;97225.09;6183895;28;20311;-82
2022/04/03 03:52:03;;;;;;;8.47;6.03;;;;;;;-0.87;80.99;97220.88;6186149;28;20295;-83
2022/04/03 03:55:06;;;;;;;11.63;6.60;;;;;;;-0.89;80.83;97222.69;6183593;28;20612;-82
2022/04/03 03:58:09;;;;;;;7.50;5.53;;;;;;;-0.91;80.63;97222.78;6164446;28;20233;-82
2022/04/03 04:01:12;;;;;;;6.27;5.50;;;;;;;-0.94;79.70;97230.66;6163771;28;20778;-82
2022/04/03 04:04:14;;;;;;;8.53;5.70;;;;;;;-0.97;80.05;97248.06;6180026;28;20368;-82
2022/04/03 04:07:16;;;;;;;8.37;6.03;;;;;;;-1.00;79.52;97246.47;6179543;28;20243;-82
2022/04/03 04:10:19;;;;;;;8.03;6.47;;;;;;;-1.05;79.90;97258.75;6179390;28;20570;-82
2022/04/03 04:13:22;;;;;;;11.00;6.30;;;;;;;-1.13;79.79;97253.91;6163237;28;20225;-81
2022/04/03 04:16:24;;;;;;;11.83;6.37;;;;;;;-1.18;80.16;97255.81;6179990;28;20749;-82
2022/04/03 04:19:26;;;;;;;13.70;6.50;;;;;;;-1.21;79.75;97268.91;6178126;28;20600;-82
2022/04/03 04:22:29;;;;;;;9.80;6.47;;;;;;;-1.23;80.14;97275.88;6162778;28;20698;-82
2022/04/03 04:25:31;;;;;;;12.13;7.33;;;;;;;-1.22;79.63;97277.56;6147637;28;20237;-82
2022/04/03 04:28:34;;;;;;;13.43;6.37;;;;;;;-1.24;79.87;97284.53;6178971;28;20701;-82
2022/04/03 04:31:36;;;;;;;8.20;6.20;;;;;;;-1.30;79.96;97289.97;6178930;28;20241;-82
2022/04/03 04:34:39;;;;;;;13.63;7.00;;;;;;;-1.35;80.67;97291.03;6159863;28;20218;-82
2022/04/03 04:37:42;;;;;;;9.23;6.97;;;;;;;-1.35;80.78;97293.63;6177138;28;20228;-82
2022/04/03 04:40:44;;;;;;;10.90;7.03;;;;;;;-1.32;80.12;97294.38;6159506;28;20226;-82
2022/04/03 04:43:46;;;;;;;13.60;7.37;;;;;;;-1.27;79.80;97305.38;6157813;28;20230;-83
2022/04/03 04:46:49;;;;;;;10.10;7.17;;;;;;;-1.23;79.95;97304.34;6168160;28;20244;-83
2022/04/03 04:49:51;;;;;;;14.70;7.47;;;;;;;-1.26;80.13;97308.78;6179115;28;20760;-82
2022/04/03 04:52:54;;;;;;;13.33;8.13;;;;;;;-1.17;79.33;97317.03;6177992;28;20243;-82
2022/04/03 04:55:56;;;;;;;8.93;7.17;;;;;;;-1.10;79.29;97315.06;6179068;28;20255;-82
2022/04/03 04:58:58;;;;;;;12.63;8.07;;;;;;;-1.05;78.99;97322.63;6180635;28;20229;-82
2022/04/03 05:02:00;;;;;;;8.23;7.20;;;;;;;-1.04;79.27;97322.59;6178407;28;20237;-82
2022/04/03 05:05:05;;;;;;;9.30;6.83;;;;;;;-1.02;78.84;97325.13;6173588;28;20225;-83
2022/04/03 05:08:08;;;;;;;12.50;7.43;;;;;;;-0.98;78.44;97337.88;6162167;28;20603;-82
2022/04/03 05:11:13;;;;;;;8.73;7.13;;;;;;;-0.94;77.83;97334.25;6175601;28;20244;-82
2022/04/03 05:14:15;;;;;;;11.07;7.30;;;;;;;-0.88;77.72;97338.34;6179727;28;20596;-82
2022/04/03 05:17:17;;;;;;;9.70;7.67;;;;;;;-0.83;77.70;97339.00;6178478;28;20259;-83
2022/04/03 05:20:20;;;;;;;7.57;6.53;;;;;;;-0.82;77.36;97345.88;6171501;28;20229;-83
2022/04/03 05:23:22;;;;;;;10.63;6.97;;;;;;;-0.79;76.92;97343.13;6173367;28;20226;-82
2022/04/03 05:26:24;;;;;;;10.57;6.63;;;;;;;-0.71;76.65;97350.63;6186946;28;20232;-82
2022/04/03 05:29:27;;;;;;;9.63;7.00;;;;;;;-0.68;76.90;97348.72;6174254;28;20236;-82
2022/04/03 05:32:31;;;;;;;8.17;5.87;;;;;;;-0.60;75.82;97362.22;6169469;28;20224;-82
2022/04/03 05:35:34;;;;;;;7.53;6.60;;;;;;;-0.49;75.44;97361.78;6178474;28;20276;-82
2022/04/03 05:38:36;;;;;;;9.43;6.83;;;;;;;-0.45;75.28;97360.75;6163133;28;20873;-82
2022/04/03 05:41:38;;;;;;;10.17;5.40;;;;;;;-0.48;74.83;97379.00;6193935;28;20246;-82
2022/04/03 05:44:41;;;;;;;12.00;5.90;;;;;;;-0.47;74.49;97371.16;6169938;28;20596;-82
2022/04/03 05:47:43;;;;;;;9.63;5.30;;;;;;;-0.49;74.46;97382.50;6163442;28;20307;-82
2022/04/03 05:50:45;;;;;;;8.90;5.63;;;;;;;-0.53;74.17;97368.00;6179032;28;20316;-82
2022/04/03 05:53:48;;;;;;;7.83;5.57;;;;;;;-0.47;74.04;97372.91;6187416;28;20296;-83
2022/04/03 05:56:50;;;;;;;9.60;5.47;;;;;;;-0.47;74.55;97386.72;6160189;28;20309;-82
2022/04/03 05:59:52;;;;;;;9.03;5.03;;;;;;;-0.34;73.28;97387.06;6184640;28;20660;-82
2022/04/03 06:02:57;;;;;;;6.77;4.37;;;;;;;-0.26;74.33;97378.97;6182320;28;20229;-82
2022/04/03 06:06:00;;;;;;;8.37;4.83;;;;;;;-0.20;72.00;97386.50;6166883;28;20897;-82
2022/04/03 06:09:02;;;;;;;6.00;4.30;;;;;;;-0.08;72.06;97394.59;6158190;28;20718;-82
2022/04/03 06:12:04;;;;;;;9.27;4.30;;;;;;;0.14;71.85;97388.47;6184310;28;20241;-82
2022/04/03 06:15:07;;;;;;;7.23;4.57;;;;;;;0.27;71.54;97395.66;6184006;28;20275;-82
2022/04/03 06:18:11;;;;;;;4.90;4.23;;;;;;;0.32;70.59;97400.63;6182845;28;20211;-82
2022/04/03 06:21:13;;;;;;;7.33;4.20;;;;;;;0.30;68.81;97407.69;6183771;28;20280;-82
2022/04/03 06:24:15;;;;;;;8.43;4.10;;;;;;;0.37;69.69;97401.28;6183545;28;20591;-83
2022/04/03 06:27:18;;;;;;;7.53;4.37;;;;;;;0.30;68.75;97411.09;6182528;28;20213;-82
2022/04/03 06:30:21;;;;;;;9.77;4.33;;;;;;;0.49;68.69;97413.75;6165544;28;20565;-82
2022/04/03 06:33:24;;;;;;;8.70;4.57;;;;;;;0.58;68.47;97417.66;6166063;28;20221;-82
2022/04/03 06:36:26;;;;;;;7.13;4.47;;;;;;;0.51;67.88;97418.84;6182732;28;20228;-82
2022/04/03 06:39:28;;;;;;;9.57;4.50;;;;;;;0.51;68.36;97435.25;6164810;28;20225;-82
2022/04/03 06:42:31;;;;;;;8.53;4.20;;;;;;;0.66;67.93;97436.34;6166872;28;20232;-82
2022/04/03 06:45:33;;;;;;;9.47;4.00;;;;;;;0.61;66.93;97443.47;6181570;28;20221;-82
2022/04/03 06:48:41;;;;;;;6.77;4.23;;;;;;;0.81;67.20;97446.03;6166053;28;20229;-82
2022/04/03 07:51:32;;;;;;;7.07;4.40;;;;;;;1.50;63.59;97534.66;3721448;28;22413;-83
2022/04/03 07:54:35;;;;;;;7.93;4.23;;;;;;;1.78;62.60;97536.84;6157014;28;20233;-82
2022/04/03 07:57:39;;;;;;;6.37;3.83;;;;;;;1.68;61.10;97551.19;6163993;28;20248;-84
2022/04/03 08:00:41;;;;;;;6.20;4.20;;;;;;;1.48;61.49;97536.50;6180283;28;20648;-82
2022/04/03 08:03:43;;;;;;;6.43;3.80;;;;;;;1.78;61.45;97532.47;6174811;28;20236;-83
2022/04/03 08:06:46;;;;;;;5.63;4.07;;;;;;;2.16;60.08;97540.19;6161870;28;20308;-84
2022/04/03 08:09:52;;;;;;;5.60;3.70;;;;;;;2.43;58.04;97548.38;6182023;28;20244;-84
2022/04/03 08:12:54;;;;;;;4.80;3.77;;;;;;;2.72;56.74;97544.31;6166775;28;20241;-85
2022/04/03 08:15:57;;;;;;;5.80;3.93;;;;;;;3.29;56.95;97550.88;6180946;28;20233;-83
2022/04/03 08:19:03;;;;;;;7.47;4.00;;;;;;;2.90;56.97;97554.63;6164374;28;20247;-84
2022/04/03 08:22:05;;;;;;;6.17;3.77;;;;;;;3.37;56.66;97559.13;6174831;28;20245;-84
2022/04/03 08:25:07;;;;;;;4.57;3.90;;;;;;;3.82;54.73;97573.19;6176760;28;20854;-83
2022/04/03 08:28:09;;;;;;;8.23;4.00;;;;;;;3.21;54.20;97566.06;6179326;28;20611;-85
2022/04/03 08:31:11;;;;;;;13.20;4.10;;;;;;;3.38;55.08;97580.84;6179048;28;20245;-84
2022/04/03 08:34:14;;;;;;;5.07;3.43;;;;;;;3.26;55.11;97577.94;6162758;28;20719;-83
2022/04/03 08:37:36;;;;;;;4.97;3.70;;;;;;;3.01;54.96;97581.91;6178282;28;20221;-83
2022/04/03 08:40:38;;;;;;;17.93;4.77;;;;;;;2.50;56.42;97594.88;6161631;28;20247;-83
2022/04/03 08:43:40;;;;;;;6.83;3.67;;;;;;;2.80;58.02;97592.50;6174535;28;20225;-83
2022/04/03 08:46:47;;;;;;;8.03;4.33;;;;;;;2.66;56.96;97602.78;6173755;28;20251;-84
2022/04/03 08:49:50;;;;;;;6.33;4.43;;;;;;;2.35;56.78;97602.59;6158757;28;20631;-84
2022/04/03 08:52:54;;;;;;;5.87;3.87;;;;;;;2.38;57.14;97603.31;6148149;28;20610;-85
2022/04/03 08:55:57;;;;;;;5.80;3.67;;;;;;;2.97;55.49;97602.09;6160880;28;20234;-83
2022/04/03 08:58:59;;;;;;;5.67;3.30;;;;;;;3.17;54.25;97601.06;6178386;28;20244;-83
2022/04/03 09:02:01;;;;;;;7.60;4.00;;;;;;;3.71;52.88;97598.13;6179176;28;20229;-83
2022/04/03 09:05:05;;;;;;;7.80;3.97;;;;;;;3.76;52.71;97608.31;6178484;28;20241;-84
2022/04/03 09:08:09;;;;;;;6.30;3.77;;;;;;;4.00;52.19;97609.56;6179481;28;20604;-84
2022/04/03 09:11:13;;;;;;;6.83;3.87;;;;;;;3.57;53.60;97605.00;6178483;28;20229;-84
2022/04/03 09:14:20;;;;;;;5.27;3.87;;;;;;;3.74;52.79;97610.16;6164229;28;20222;-84
2022/04/03 09:17:40;;;;;;;8.00;4.80;;;;;;;2.82;54.67;97619.31;6173259;28;20248;-84
2022/04/03 09:20:42;;;;;;;5.73;3.50;;;;;;;3.48;55.38;97610.72;6161338;28;20237;-84
2022/04/03 09:24:06;;;;;;;9.53;4.30;;;;;;;3.90;53.96;97607.53;6178782;28;20639;-84
2022/04/03 09:27:09;;;;;;;10.50;4.60;;;;;;;4.03;53.10;97611.19;6157877;28;20226;-84
2022/04/03 09:30:12;;;;;;;4.73;3.67;;;;;;;4.42;54.51;97611.56;6186167;28;20231;-83
2022/04/03 09:33:19;;;;;;;6.17;3.87;;;;;;;4.65;51.78;97609.41;6180137;28;20199;-84
2022/04/03 09:36:21;;;;;;;8.53;4.53;;;;;;;4.22;52.31;97621.44;6165121;28;20237;-87
2022/04/03 09:39:26;;;;;;;6.93;4.73;;;;;;;3.39;54.52;97614.66;6166266;28;20736;-87
2022/04/03 09:42:29;;;;;;;8.47;4.70;;;;;;;3.17;54.60;97638.41;6166959;28;20233;-86
2022/04/03 09:45:43;;;;;;;6.43;4.67;;;;;;;4.17;53.05;97620.88;6182399;28;20622;-86
2022/04/03 09:48:46;;;;;;;8.87;4.80;;;;;;;4.04;53.66;97633.75;6165437;28;20244;-86
2022/04/03 09:51:49;;;;;;;5.97;4.43;;;;;;;3.78;54.24;97629.97;6166030;28;20236;-86
2022/04/03 09:54:51;;;;;;;7.33;4.50;;;;;;;3.16;55.10;97628.91;6165682;28;20240;-86
2022/04/03 09:58:06;;;;;;;8.47;4.57;;;;;;;2.97;56.19;97630.75;6165480;28;20240;-86
2022/04/03 10:01:36;;;;;;;7.77;4.60;;;;;;;3.00;57.38;97630.56;6182405;28;20240;-86
2022/04/03 10:04:39;;;;;;;4.90;4.40;;;;;;;3.12;58.28;97644.75;6161924;28;20604;-86
2022/04/03 10:07:42;;;;;;;7.07;5.40;;;;;;;3.25;56.63;97644.06;6170593;28;20269;-86
2022/04/03 10:10:47;;;;;;;8.03;5.03;;;;;;;2.80;57.45;97638.56;6157470;28;20240;-86
2022/04/03 10:13:50;;;;;;;8.90;5.00;;;;;;;3.03;57.06;97650.44;6173420;28;20242;-86
2022/04/03 10:16:52;;;;;;;9.23;5.47;;;;;;;3.18;58.25;97644.47;6167139;28;20236;-84
2022/04/03 10:19:55;;;;;;;7.63;5.80;;;;;;;3.33;56.80;97644.50;6182601;28;20245;-86
2022/04/03 10:23:11;;;;;;;9.73;6.13;;;;;;;3.22;57.55;97651.19;6181705;28;20645;-82
2022/04/03 10:26:19;;;;;;;9.13;5.57;;;;;;;2.95;57.25;97653.44;6157987;28;20318;-82
2022/04/03 10:29:24;;;;;;;7.57;5.83;;;;;;;2.65;57.30;97658.41;6142700;28;20240;-82
2022/04/03 10:32:33;;;;;;;7.70;6.13;;;;;;;2.33;57.20;97661.72;6177295;28;20229;-81
2022/04/03 10:35:36;;;;;;;10.73;6.87;;;;;;;2.16;58.28;97667.75;6165479;28;20245;-82
2022/04/03 10:38:42;;;;;;;9.47;6.70;;;;;;;2.28;59.42;97659.34;6183480;28;20244;-82
2022/04/03 10:41:44;;;;;;;9.63;7.10;;;;;;;2.13;58.58;97665.28;6189373;28;20229;-82
2022/04/03 10:45:14;;;;;;;8.67;7.17;;;;;;;2.02;58.83;97673.56;6182784;28;20325;-84
2022/04/03 10:48:22;;;;;;;8.47;6.60;;;;;;;2.31;59.24;97661.78;6162216;28;20689;-82
2022/04/03 10:51:26;;;;;;;9.23;6.03;;;;;;;2.80;58.44;97662.84;6185941;28;20309;-82
2022/04/03 10:54:30;;;;;;;11.13;6.60;;;;;;;2.87;56.64;97672.06;6181093;28;20274;-82
2022/04/03 10:57:42;;;;;;;7.90;6.00;;;;;;;2.49;57.34;97665.31;6165303;28;20232;-82
2022/04/03 11:00:44;;;;;;;7.87;5.77;;;;;;;2.21;57.26;97674.41;6190501;28;20229;-82
2022/04/03 11:04:13;;;;;;;7.77;5.77;;;;;;;2.34;57.93;97689.44;6176354;28;20657;-82
2022/04/03 11:07:17;;;;;;;8.83;6.10;;;;;;;2.91;57.13;97675.34;6205036;28;20245;-81
2022/04/03 11:10:48;;;;;;;7.37;6.60;;;;;;;3.01;54.69;97673.97;6194263;28;20597;-82
2022/04/03 11:13:50;;;;;;;9.97;5.87;;;;;;;2.96;55.26;97682.03;6180689;28;20225;-82
2022/04/03 11:16:55;;;;;;;6.73;5.33;;;;;;;2.73;55.85;97669.28;6179555;28;20264;-82
2022/04/03 11:19:59;;;;;;;8.60;6.10;;;;;;;2.28;58.28;97677.59;6180661;28;20705;-82
2022/04/03 11:23:03;;;;;;;6.20;5.60;;;;;;;2.19;57.78;97678.00;6180399;28;20233;-82
2022/04/03 11:26:06;;;;;;;7.20;5.57;;;;;;;2.32;57.57;97683.47;6180220;28;20237;-82
2022/04/03 11:29:10;;;;;;;8.77;5.93;;;;;;;2.77;57.29;97677.81;6180885;28;20317;-81
2022/04/03 11:32:14;;;;;;;7.90;5.53;;;;;;;3.57;54.92;97676.31;6180348;28;20237;-81
2022/04/03 11:35:30;;;;;;;7.37;5.63;;;;;;;3.98;55.53;97674.09;6187446;28;20248;-81
2022/04/03 11:38:46;;;;;;;6.07;5.00;;;;;;;4.38;53.14;97671.94;6178511;28;20872;-82
2022/04/03 11:41:51;;;;;;;7.37;5.23;;;;;;;4.85;53.70;97671.84;6177349;28;20597;-82
2022/04/03 11:44:53;;;;;;;5.97;5.00;;;;;;;5.04;50.19;97663.78;6184435;28;20600;-82
2022/04/03 11:48:13;;;;;;;7.53;4.73;;;;;;;5.52;50.79;97668.72;6173055;28;20233;-82
2022/04/03 11:51:20;;;;;;;7.67;5.70;;;;;;;5.97;50.38;97664.25;6179879;28;20235;-82
2022/04/03 11:54:25;;;;;;;8.03;5.60;;;;;;;6.28;49.25;97663.19;6179465;28;20292;-89
2022/04/03 11:57:27;;;;;;;4.80;4.30;;;;;;;5.88;47.46;97660.44;6163003;28;20820;-82
2022/04/03 12:00:33;;;;;;;5.10;4.30;;;;;;;5.87;46.75;97656.09;6163090;28;20241;-82
2022/04/03 12:03:41;;;;;;;6.90;4.20;;;;;;;5.67;49.28;97650.41;6190062;28;20255;-82
2022/04/03 12:06:49;;;;;;;5.50;4.20;;;;;;;6.24;47.42;97654.66;6178625;28;20313;-82
2022/04/03 12:09:51;;;;;;;6.90;4.23;;;;;;;5.76;46.88;97655.91;6179759;28;20228;-82
2022/04/03 12:12:59;;;;;;;4.93;3.70;;;;;;;6.20;45.94;97665.41;6179590;28;20347;-81
2022/04/03 12:16:02;;;;;;;6.07;4.03;;;;;;;5.75;48.79;97680.41;6162947;28;20375;-81
2022/04/03 12:19:17;;;;;;;5.33;3.80;;;;;;;5.11;47.61;97660.69;6180560;28;20233;-82
2022/04/03 12:22:20;;;;;;;5.23;4.13;;;;;;;5.35;47.45;97655.81;6178328;28;20239;-81
2022/04/03 12:25:23;;;;;;;7.50;4.47;;;;;;;5.31;45.75;97680.44;6178337;28;20333;-82
2022/04/03 12:28:25;;;;;;;5.77;3.87;;;;;;;5.00;48.53;97662.25;6177910;28;20240;-80
2022/04/03 12:31:29;;;;;;;6.27;3.70;;;;;;;3.98;47.54;97666.28;6162428;28;20243;-81
2022/04/03 12:34:53;;;;;;;4.43;3.97;;;;;;;4.03;49.26;97669.47;6161324;28;20227;-81
2022/04/03 12:37:57;;;;;;;4.60;3.30;;;;;;;4.43;47.65;97669.88;6161313;28;20239;-81
2022/04/03 12:41:00;;;;;;;9.17;3.90;;;;;;;4.15;50.98;97662.75;6181291;28;20369;-81
2022/04/03 12:44:02;;;;;;;6.67;4.00;;;;;;;4.15;49.76;97670.56;6179354;28;20240;-81
2022/04/03 12:47:12;;;;;;;5.17;3.87;;;;;;;3.91;50.08;97667.50;6178456;28;20666;-81
2022/04/03 12:50:46;;;;;;;5.90;4.10;;;;;;;4.18;51.20;97665.19;6178820;28;20333;-81
2022/04/03 12:53:51;;;;;;;8.13;3.93;;;;;;;4.05;50.50;97672.00;6168514;28;20237;-81
2022/04/03 13:00:16;;;;;;;4.67;3.83;;;;;;;4.86;48.93;97651.78;6199348;28;20245;-81
2022/04/03 13:03:27;;;;;;;9.80;4.43;;;;;;;5.87;48.98;97648.25;6202654;28;20620;-81
2022/04/03 13:06:30;;;;;;;5.50;3.80;;;;;;;6.70;46.91;97650.84;6203530;28;20277;-81
2022/04/03 13:09:32;;;;;;;7.33;3.80;;;;;;;6.01;45.73;97655.25;6182050;28;20343;-81
2022/04/03 13:12:34;;;;;;;5.67;3.97;;;;;;;5.27;47.57;97658.03;6177409;28;20631;-81
2022/04/03 13:15:37;;;;;;;4.47;3.37;;;;;;;5.06;48.22;97665.38;6177278;28;20244;-82
2022/04/03 13:18:39;;;;;;;5.13;3.50;;;;;;;5.41;50.08;97663.28;6177161;28;20243;-81
2022/04/03 13:21:42;;;;;;;5.83;3.70;;;;;;;5.15;49.64;97671.84;6179517;28;20243;-81
2022/04/03 13:24:44;;;;;;;7.33;3.93;;;;;;;5.09;47.70;97669.59;6190689;28;20248;-81
2022/04/03 13:27:47;;;;;;;4.63;3.87;;;;;;;4.61;51.76;97679.28;6142344;28;20254;-81
2022/04/03 13:30:50;;;;;;;4.77;3.70;;;;;;;5.67;50.59;97660.88;6191455;28;20232;-81
2022/04/03 13:33:53;;;;;;;4.10;3.10;;;;;;;7.15;47.20;97658.34;6178366;28;20263;-81
2022/04/03 13:36:56;;;;;;;5.93;3.60;;;;;;;7.69;43.65;97660.75;6178855;28;20241;-81
2022/04/03 13:39:58;;;;;;;6.67;3.57;;;;;;;7.87;44.09;97650.78;6178018;28;20232;-81
2022/04/03 13:43:02;;;;;;;7.77;3.60;;;;;;;7.68;39.50;97640.72;6177483;28;20259;-82
2022/04/03 13:46:04;;;;;;;5.83;3.43;;;;;;;8.20;41.38;97631.78;6178543;28;20240;-81
2022/04/03 13:49:07;;;;;;;3.90;3.13;;;;;;;9.81;37.08;97632.84;6177592;28;20771;-81
2022/04/03 13:52:10;;;;;;;3.47;2.87;;;;;;;11.49;33.68;97626.09;6178927;28;20237;-81
2022/04/03 13:55:12;;;;;;;3.63;3.10;;;;;;;12.06;32.10;97628.25;6178275;28;20600;-81
2022/04/03 13:58:14;;;;;;;3.03;2.53;;;;;;;14.10;31.56;97620.09;6179947;28;20239;-81
2022/04/03 14:01:20;;;;;;;5.63;3.47;;;;;;;13.24;28.55;97639.72;6162298;28;20241;-82
2022/04/03 14:04:22;;;;;;;4.53;3.17;;;;;;;11.05;33.99;97646.53;6161498;28;20257;-81
2022/04/03 14:07:24;;;;;;;4.00;3.10;;;;;;;11.65;33.45;97644.16;6177230;28;20622;-82
2022/04/03 14:10:26;;;;;;;4.07;3.20;;;;;;;12.26;33.13;97641.53;6177811;28;20236;-81
2022/04/03 14:13:30;;;;;;;4.93;3.57;;;;;;;12.46;32.25;97632.69;6177050;28;20240;-81
2022/04/03 14:16:33;;;;;;;3.93;2.83;;;;;;;12.24;32.43;97633.72;6163656;28;20230;-81
2022/04/03 14:19:36;;;;;;;4.97;3.10;;;;;;;10.65;33.98;97630.47;6183038;28;20315;-82
2022/04/03 14:22:38;;;;;;;5.27;3.20;;;;;;;7.32;38.53;97636.19;6181703;28;20241;-82
2022/04/03 14:25:40;;;;;;;3.90;3.50;;;;;;;6.46;41.68;97641.03;6181738;28;20228;-82
2022/04/03 14:28:44;;;;;;;4.37;3.63;;;;;;;5.88;46.24;97651.75;6166132;28;20282;-81
2022/04/03 14:31:46;;;;;;;3.83;3.47;;;;;;;5.98;45.88;97644.16;6184707;28;20236;-81
2022/04/03 14:34:48;;;;;;;7.73;3.80;;;;;;;6.69;44.12;97641.34;6165620;28;20237;-81
2022/04/03 14:37:51;;;;;;;3.77;3.13;;;;;;;6.95;43.10;97635.19;6182876;28;20236;-81
2022/04/03 14:40:54;;;;;;;4.20;3.80;;;;;;;5.84;43.54;97644.97;6164377;28;20237;-81
2022/04/03 14:43:57;;;;;;;3.97;3.50;;;;;;;5.00;44.35;97654.41;6154955;28;20363;-81
2022/04/03 14:47:05;;;;;;;3.83;3.27;;;;;;;5.75;44.85;97654.22;6148245;28;20740;-81
2022/04/03 14:50:12;;;;;;;4.70;3.40;;;;;;;5.82;45.96;97652.91;6181413;28;20228;-81
2022/04/03 14:53:17;;;;;;;4.23;3.80;;;;;;;4.52;44.44;97653.69;6165074;28;20609;-81
2022/04/03 14:56:20;;;;;;;5.53;4.17;;;;;;;4.83;46.44;97663.25;6173098;28;20378;-81
2022/04/03 14:59:23;;;;;;;4.67;3.93;;;;;;;4.27;46.98;97669.91;6175787;28;20345;-80
2022/04/03 15:02:25;;;;;;;4.50;3.53;;;;;;;3.73;49.30;97671.09;6167994;28;20619;-81
2022/04/03 15:05:27;;;;;;;4.13;3.47;;;;;;;3.42;50.28;97668.41;6171062;28;20745;-81
2022/04/03 15:08:30;;;;;;;5.97;3.30;;;;;;;3.56;49.41;97669.41;6181154;28;20233;-81
2022/04/03 15:11:32;;;;;;;5.23;3.80;;;;;;;4.63;48.29;97663.53;6180833;28;20236;-81
2022/04/03 15:14:34;;;;;;;5.90;3.50;;;;;;;5.09;44.31;97665.16;6181854;28;20231;-81
2022/04/03 15:17:36;;;;;;;5.93;3.33;;;;;;;5.62;41.93;97666.38;6181130;28;20238;-81
2022/04/03 15:20:38;;;;;;;4.40;3.10;;;;;;;5.22;43.30;97669.69;6180449;28;20261;-81
2022/04/03 15:23:41;;;;;;;4.27;2.87;;;;;;;4.76;44.59;97665.38;6181843;28;20245;-81
2022/04/03 15:26:48;;;;;;;4.87;3.00;;;;;;;3.83;47.15;97682.75;6179690;28;20759;-82
2022/04/03 15:29:55;;;;;;;6.20;2.80;;;;;;;4.09;47.84;97683.97;6171553;28;20709;-81